createdAt,value
2022-11-24T00:04:56.699Z,15.22
2022-11-24T00:07:44.230Z,15.23
2022-11-24T00:10:26.921Z,15.26
2022-11-24T00:13:04.243Z,15.33
2022-11-24T00:16:07.249Z,15.33
2022-11-24T00:18:51.433Z,15.36
2022-11-24T00:24:45.246Z,14.90
2022-11-24T00:27:51.853Z,14.47
2022-11-24T00:46:35.088Z,14.36
2022-11-24T00:49:07.441Z,14.47
2022-11-24T00:51:47.908Z,14.60
2022-11-24T00:57:18.578Z,14.79
2022-11-24T01:00:36.692Z,14.80
2022-11-24T01:03:24.392Z,14.91
2022-11-24T01:09:27.650Z,14.97
2022-11-24T01:12:20.987Z,15.05
2022-11-24T01:21:32.989Z,15.11
2022-11-24T01:27:22.621Z,15.21
2022-11-24T01:30:04.958Z,15.26
2022-11-24T01:35:56.463Z,15.46
2022-11-24T01:38:30.167Z,15.55
2022-11-24T01:41:12.173Z,15.56
2022-11-24T01:47:02.023Z,15.52
2022-11-24T01:49:53.409Z,15.47
2022-11-24T01:52:33.254Z,15.40
2022-11-24T01:55:12.126Z,15.39
2022-11-24T01:58:06.711Z,15.32
2022-11-24T02:00:37.744Z,15.34
2022-11-24T02:06:00.212Z,15.49
2022-11-24T02:08:47.420Z,15.58
2022-11-24T02:11:17.111Z,15.52
2022-11-24T02:14:01.621Z,15.52
2022-11-24T02:16:31.321Z,15.53
2022-11-24T02:19:00.375Z,15.52
2022-11-24T02:21:30.760Z,15.55
2022-11-24T02:24:22.670Z,15.48
2022-11-24T02:27:14.538Z,15.48
2022-11-24T02:29:44.124Z,15.52
2022-11-24T02:32:13.509Z,15.51
2022-11-24T02:34:41.601Z,15.49
2022-11-24T02:37:09.906Z,15.45
2022-11-24T02:39:38.579Z,15.53
2022-11-24T02:42:13.185Z,15.48
2022-11-24T02:44:49.513Z,15.50
2022-11-24T02:47:18.058Z,15.53
2022-11-24T02:49:47.210Z,15.48
2022-11-24T02:52:16.258Z,15.53
2022-11-24T02:54:44.720Z,15.49
2022-11-24T02:57:16.803Z,15.51
2022-11-24T02:59:58.423Z,15.48
2022-11-24T03:02:27.550Z,15.40
2022-11-24T03:04:56.127Z,15.40
2022-11-24T03:07:24.392Z,15.37
2022-11-24T03:09:52.873Z,15.29
2022-11-24T03:12:22.564Z,15.21
2022-11-24T03:14:50.802Z,15.13
2022-11-24T03:17:19.598Z,15.03
2022-11-24T03:19:50.489Z,14.93
2022-11-24T03:22:19.200Z,14.90
2022-11-24T03:24:47.707Z,14.82
2022-11-24T03:27:16.124Z,14.78
2022-11-24T03:29:45.795Z,14.71
2022-11-24T03:32:14.915Z,14.71
2022-11-24T03:34:43.354Z,14.71
2022-11-24T03:37:12.135Z,14.72
2022-11-24T03:39:40.370Z,14.70
2022-11-24T03:42:09.229Z,14.71
2022-11-24T03:44:37.860Z,14.65
2022-11-24T03:47:07.540Z,14.65
2022-11-24T03:49:36.070Z,14.59
2022-11-24T03:52:07.983Z,14.58
2022-11-24T03:54:37.263Z,14.56
2022-11-24T03:57:06.755Z,14.56
2022-11-24T03:59:35.354Z,14.48
2022-11-24T04:02:04.019Z,14.43
2022-11-24T04:04:36.114Z,14.39
2022-11-24T04:07:04.379Z,14.32
2022-11-24T04:09:32.933Z,14.25
2022-11-24T04:12:18.810Z,14.16
2022-11-24T04:14:47.172Z,14.05
2022-11-24T04:17:15.379Z,13.97
2022-11-24T04:19:45.039Z,13.89
2022-11-24T04:22:13.160Z,13.83
2022-11-24T04:24:41.345Z,13.78
2022-11-24T04:27:09.424Z,13.73
2022-11-24T04:29:37.458Z,13.67
2022-11-24T04:32:06.321Z,13.60
2022-11-24T04:34:35.149Z,13.55
2022-11-24T04:37:05.685Z,13.50
2022-11-24T04:39:34.113Z,13.49
2022-11-24T04:42:02.528Z,13.46
2022-11-24T04:44:32.849Z,13.39
2022-11-24T04:47:02.087Z,13.41
2022-11-24T04:49:30.400Z,13.40
2022-11-24T04:51:58.634Z,13.40
2022-11-24T04:54:28.424Z,13.37
2022-11-24T04:56:56.962Z,13.37
2022-11-24T04:59:25.191Z,13.38
2022-11-24T05:01:53.480Z,13.39
2022-11-24T05:04:22.442Z,13.41
2022-11-24T05:06:50.660Z,13.41
2022-11-24T05:09:19.237Z,13.39
2022-11-24T05:11:49.932Z,13.40
2022-11-24T05:14:18.060Z,13.47
2022-11-24T05:16:46.480Z,13.47
2022-11-24T05:19:15.190Z,13.45
2022-11-24T05:21:43.157Z,13.44
2022-11-24T05:24:12.287Z,13.47
2022-11-24T05:26:40.342Z,13.46
2022-11-24T05:29:10.034Z,13.50
2022-11-24T05:31:38.999Z,13.50
2022-11-24T05:34:07.217Z,13.53
2022-11-24T05:36:52.674Z,13.57
2022-11-24T05:39:20.957Z,13.60
2022-11-24T05:41:49.288Z,13.69
2022-11-24T05:44:19.020Z,13.76
2022-11-24T05:46:47.405Z,13.82
2022-11-24T05:49:15.498Z,13.86
2022-11-24T05:51:43.537Z,13.95
2022-11-24T05:54:11.557Z,13.99
2022-11-24T05:56:39.726Z,14.06
2022-11-24T05:59:09.990Z,14.14
2022-11-24T06:01:40.155Z,14.22
2022-11-24T06:04:08.366Z,14.25
2022-11-24T06:06:36.397Z,14.32
2022-11-24T06:09:05.028Z,14.34
2022-11-24T06:11:33.024Z,14.35
2022-11-24T06:14:01.110Z,14.38
2022-11-24T06:16:29.612Z,14.43
2022-11-24T06:18:59.175Z,14.42
2022-11-24T06:21:27.635Z,14.49
2022-11-24T06:23:56.274Z,14.50
2022-11-24T06:26:24.372Z,14.52
2022-11-24T06:28:52.471Z,14.51
2022-11-24T06:31:20.989Z,14.50
2022-11-24T06:33:49.261Z,14.53
2022-11-24T06:36:19.302Z,14.51
2022-11-24T06:38:48.128Z,14.53
2022-11-24T06:41:18.516Z,14.55
2022-11-24T06:43:52.323Z,14.52
2022-11-24T06:46:21.105Z,14.56
2022-11-24T06:48:49.525Z,14.59
2022-11-24T06:51:19.998Z,14.57
2022-11-24T06:53:49.415Z,14.59
2022-11-24T06:56:21.337Z,14.61
2022-11-24T06:58:52.306Z,14.64
2022-11-24T07:01:22.304Z,14.64
2022-11-24T07:03:51.883Z,14.65
2022-11-24T07:06:24.573Z,14.67
2022-11-24T07:08:53.648Z,14.67
2022-11-24T07:11:23.961Z,14.65
2022-11-24T07:13:59.899Z,14.65
2022-11-24T07:16:30.208Z,14.62
2022-11-24T07:18:58.852Z,14.66
2022-11-24T07:21:32.480Z,14.67
2022-11-24T07:24:01.328Z,14.70
2022-11-24T07:26:29.623Z,14.75
2022-11-24T07:28:58.559Z,14.78
2022-11-24T07:31:27.135Z,14.83
2022-11-24T07:33:58.275Z,14.90
2022-11-24T07:36:28.705Z,14.97
2022-11-24T07:38:57.026Z,15.04
2022-11-24T07:41:25.724Z,15.15
2022-11-24T07:43:59.850Z,15.24
2022-11-24T07:46:29.046Z,15.35
2022-11-24T07:48:57.345Z,15.45
2022-11-24T07:51:25.745Z,15.55
2022-11-24T07:53:55.945Z,15.61
2022-11-24T07:56:26.333Z,15.63
2022-11-24T07:59:08.223Z,15.63
2022-11-24T08:01:39.968Z,15.67
2022-11-24T08:04:08.953Z,15.63
2022-11-24T08:06:40.904Z,15.66
2022-11-24T08:09:13.227Z,15.62
2022-11-24T08:11:41.717Z,15.63
2022-11-24T08:14:14.613Z,15.64
2022-11-24T08:16:42.851Z,15.70
2022-11-24T08:19:12.156Z,15.71
2022-11-24T08:21:41.662Z,15.76
2022-11-24T08:24:14.037Z,15.77
2022-11-24T08:26:44.254Z,15.78
2022-11-24T08:29:15.770Z,15.82
2022-11-24T08:31:44.176Z,15.86
2022-11-24T08:34:22.868Z,15.87
2022-11-24T08:36:53.377Z,15.94
2022-11-24T08:39:21.537Z,15.96
2022-11-24T08:42:01.481Z,16.00
2022-11-24T08:44:29.948Z,16.04
2022-11-24T08:49:44.509Z,16.03
2022-11-24T08:52:12.742Z,16.06
2022-11-24T08:54:41.368Z,16.06
2022-11-24T08:57:12.607Z,16.10
2022-11-24T08:59:42.961Z,16.12
2022-11-24T09:02:13.401Z,16.15
2022-11-24T09:04:42.113Z,16.21
2022-11-24T09:07:10.187Z,16.20
2022-11-24T09:09:40.678Z,16.30
2022-11-24T09:12:14.714Z,16.33
2022-11-24T09:14:43.374Z,16.42
2022-11-24T09:17:12.109Z,16.51
2022-11-24T09:19:40.273Z,16.60
2022-11-24T09:22:10.014Z,16.65
2022-11-24T09:24:38.618Z,16.73
2022-11-24T09:27:06.997Z,16.73
2022-11-24T09:29:43.541Z,16.80
2022-11-24T09:32:14.193Z,16.81
2022-11-24T09:34:43.327Z,16.88
2022-11-24T09:37:24.277Z,16.89
2022-11-24T09:39:58.851Z,16.96
2022-11-24T09:42:53.545Z,17.03
2022-11-24T09:48:46.157Z,17.12
2022-11-24T09:51:16.329Z,17.09
2022-11-24T09:53:49.141Z,17.15
2022-11-24T09:56:22.484Z,17.13
2022-11-24T09:58:52.990Z,17.17
2022-11-24T10:01:30.506Z,17.12
2022-11-24T10:04:06.028Z,17.05
2022-11-24T10:06:41.077Z,17.04
2022-11-24T10:09:20.810Z,17.01
2022-11-24T10:11:59.923Z,16.96
2022-11-24T10:15:05.969Z,16.93
2022-11-24T10:17:49.925Z,16.93
2022-11-24T10:20:26.955Z,16.95
2022-11-24T10:23:09.511Z,16.91
2022-11-24T10:25:49.202Z,16.86
2022-11-24T10:28:17.621Z,16.88
2022-11-24T10:30:45.967Z,16.87
2022-11-24T10:33:19.721Z,16.90
2022-11-24T10:35:51.848Z,16.97
2022-11-24T10:38:35.718Z,16.99
2022-11-24T10:41:09.114Z,17.03
2022-11-24T10:43:37.320Z,17.04
2022-11-24T10:46:16.860Z,17.02
2022-11-24T10:48:59.275Z,17.02
2022-11-24T10:51:44.292Z,17.01
2022-11-24T10:54:20.829Z,16.98
2022-11-24T10:56:59.200Z,17.01
2022-11-24T10:59:41.075Z,16.97
2022-11-24T11:02:41.160Z,16.86
2022-11-24T11:05:43.725Z,16.74
2022-11-24T11:08:43.216Z,16.64
2022-11-24T11:11:45.365Z,16.54
2022-11-24T11:14:42.821Z,16.47
2022-11-24T11:17:47.643Z,16.42
2022-11-24T11:20:36.761Z,16.40
2022-11-24T11:23:22.103Z,16.36
2022-11-24T11:36:32.872Z,16.01
2022-11-24T11:39:06.828Z,15.99
2022-11-24T11:41:46.756Z,16.00
2022-11-24T11:46:56.830Z,15.89
2022-11-24T11:59:53.245Z,15.37
2022-11-24T12:06:48.156Z,15.26
2022-11-24T12:13:35.992Z,15.02
2022-11-24T12:16:45.628Z,14.96
2022-11-24T12:22:49.690Z,14.84
2022-11-24T12:25:52.566Z,14.86
2022-11-24T12:28:35.579Z,14.83
2022-11-24T12:31:19.582Z,14.91
2022-11-24T12:34:44.112Z,14.91
2022-11-24T12:38:02.750Z,15.01
2022-11-24T12:41:40.444Z,15.07
2022-11-24T12:50:59.032Z,15.38
2022-11-24T12:53:32.695Z,15.56
2022-11-24T12:56:09.179Z,15.67
2022-11-24T12:58:46.696Z,15.80
2022-11-24T13:01:26.248Z,15.93
2022-11-24T13:04:15.147Z,16.05
2022-11-24T13:06:53.051Z,16.15
2022-11-24T13:09:22.805Z,16.29
2022-11-24T13:11:57.872Z,16.43
2022-11-24T13:14:32.960Z,16.48
2022-11-24T13:17:28.636Z,16.59
2022-11-24T13:19:54.418Z,16.59
2022-11-24T13:22:32.151Z,16.60
2022-11-24T13:25:35.752Z,16.50
2022-11-24T13:28:11.403Z,16.45
2022-11-24T13:31:14.508Z,16.42
2022-11-24T13:34:05.447Z,16.15
2022-11-24T13:36:54.129Z,15.56
2022-11-24T13:39:50.349Z,14.86
2022-11-24T13:42:41.587Z,14.28
2022-11-24T13:46:03.873Z,13.88
2022-11-24T13:49:22.149Z,13.62
2022-11-24T13:52:13.894Z,13.55
2022-11-24T13:55:20.991Z,13.67
2022-11-24T13:57:57.662Z,13.89
2022-11-24T14:04:28.000Z,14.08
2022-11-24T14:07:24.918Z,14.21
2022-11-24T14:10:44.129Z,14.30
2022-11-24T14:23:34.376Z,14.59
2022-11-24T14:26:14.503Z,14.95
2022-11-24T14:28:50.670Z,15.29
2022-11-24T14:31:59.109Z,15.43
2022-11-24T14:34:54.173Z,15.81
2022-11-24T14:37:24.802Z,16.11
2022-11-24T14:39:58.182Z,16.43
2022-11-24T14:42:43.975Z,16.75
2022-11-24T14:45:27.103Z,17.03
2022-11-24T14:48:23.900Z,17.28
2022-11-24T14:50:53.307Z,17.45
2022-11-24T14:53:43.761Z,17.55
2022-11-24T14:56:33.025Z,17.68
2022-11-24T14:59:05.347Z,17.70
2022-11-24T15:01:44.945Z,17.70
2022-11-24T15:04:54.788Z,17.62
2022-11-24T15:07:27.413Z,17.47
2022-11-24T15:16:18.861Z,16.99
2022-11-24T15:18:55.483Z,16.62
2022-11-24T15:21:39.158Z,16.22
2022-11-24T15:24:35.561Z,15.97
2022-11-24T15:30:26.882Z,15.48
2022-11-24T15:36:05.335Z,15.33
2022-11-24T15:38:40.484Z,15.27
2022-11-24T15:41:40.645Z,15.26
2022-11-24T15:44:13.003Z,15.29
2022-11-24T15:47:23.423Z,15.28
2022-11-24T15:49:54.694Z,15.33
2022-11-24T15:52:31.874Z,15.35
2022-11-24T15:55:09.316Z,15.33
2022-11-24T15:57:41.376Z,15.22
2022-11-24T16:00:18.417Z,15.11
2022-11-24T16:02:55.134Z,15.05
2022-11-24T16:08:40.581Z,14.89
2022-11-24T16:15:15.773Z,14.81
2022-11-24T16:17:50.672Z,14.80
2022-11-24T16:20:25.178Z,14.76
2022-11-24T16:25:37.604Z,14.72
2022-11-24T16:28:07.485Z,14.70
2022-11-24T16:30:38.482Z,14.67
2022-11-24T16:33:08.292Z,14.60
2022-11-24T16:35:39.822Z,14.59
2022-11-24T16:38:08.548Z,14.54
2022-11-24T16:40:39.462Z,14.50
2022-11-24T16:43:08.163Z,14.49
2022-11-24T16:45:45.041Z,14.47
2022-11-24T16:48:15.803Z,14.48
2022-11-24T16:50:44.144Z,14.47
2022-11-24T16:53:13.302Z,14.51
2022-11-24T16:55:41.669Z,14.50
2022-11-24T16:58:11.010Z,14.49
2022-11-24T17:00:40.669Z,14.46
2022-11-24T17:03:08.999Z,14.45
2022-11-24T17:05:37.203Z,14.39
2022-11-24T17:08:06.065Z,14.36
2022-11-24T17:10:35.052Z,14.29
2022-11-24T17:13:05.080Z,14.27
2022-11-24T17:15:37.846Z,14.23
2022-11-24T17:18:26.827Z,14.16
2022-11-24T17:21:00.245Z,14.11
2022-11-24T17:23:30.438Z,14.01
2022-11-24T17:26:03.568Z,13.96
2022-11-24T17:28:32.376Z,13.93
2022-11-24T17:31:00.917Z,13.86
2022-11-24T17:33:31.563Z,13.84
2022-11-24T17:36:03.283Z,13.83
2022-11-24T17:38:32.212Z,13.83
2022-11-24T17:41:00.878Z,13.80
2022-11-24T17:43:29.495Z,13.76
2022-11-24T17:45:59.507Z,13.79
2022-11-24T17:48:28.269Z,13.77
2022-11-24T17:51:06.015Z,13.76
2022-11-24T17:53:34.185Z,13.80
2022-11-24T17:56:03.154Z,13.80
2022-11-24T17:58:32.844Z,13.84
2022-11-24T18:01:01.754Z,13.85
2022-11-24T18:03:31.813Z,13.88
2022-11-24T18:06:08.042Z,13.90
2022-11-24T18:08:48.652Z,13.90
2022-11-24T18:11:21.869Z,13.91
2022-11-24T18:13:59.950Z,13.94
2022-11-24T18:16:31.537Z,13.86
2022-11-24T18:19:11.315Z,13.84
2022-11-24T18:21:42.389Z,13.80
2022-11-24T18:24:11.806Z,13.75
2022-11-24T18:26:40.418Z,13.73
2022-11-24T18:29:09.348Z,13.68
2022-11-24T18:31:38.513Z,13.64
2022-11-24T18:34:07.636Z,13.65
2022-11-24T18:36:36.415Z,13.63
2022-11-24T18:39:08.686Z,13.62
2022-11-24T18:41:37.573Z,13.61
2022-11-24T18:44:12.238Z,13.67
2022-11-24T18:46:43.029Z,13.68
2022-11-24T18:49:11.346Z,13.72
2022-11-24T18:51:39.569Z,13.80
2022-11-24T18:54:11.744Z,13.88
2022-11-24T18:56:42.304Z,14.03
2022-11-24T18:59:15.493Z,14.12
2022-11-24T19:01:50.486Z,14.13
2022-11-24T19:04:36.081Z,14.10
2022-11-24T19:07:05.603Z,14.06
2022-11-24T19:09:37.522Z,13.97
2022-11-24T19:12:10.549Z,13.86
2022-11-24T19:14:41.475Z,13.77
2022-11-24T19:17:10.408Z,13.67
2022-11-24T19:19:40.184Z,13.66
2022-11-24T19:22:08.782Z,13.61
2022-11-24T19:24:39.209Z,13.65
2022-11-24T19:27:07.479Z,13.68
2022-11-24T19:29:41.731Z,13.73
2022-11-24T19:32:11.622Z,13.77
2022-11-24T19:34:40.071Z,13.76
2022-11-24T19:37:09.718Z,13.80
2022-11-24T19:39:40.689Z,13.83
2022-11-24T19:42:08.995Z,13.85
2022-11-24T19:44:37.825Z,13.88
2022-11-24T19:47:06.578Z,13.91
2022-11-24T19:49:35.571Z,13.95
2022-11-24T19:52:04.318Z,14.01
2022-11-24T19:54:34.361Z,14.07
2022-11-24T19:57:04.847Z,14.12
2022-11-24T19:59:33.713Z,14.19
2022-11-24T20:02:23.312Z,14.21
2022-11-24T20:04:56.262Z,14.23
2022-11-24T20:07:27.758Z,14.23
2022-11-24T20:10:11.728Z,14.18
2022-11-24T20:12:43.283Z,14.12
2022-11-24T20:15:25.126Z,14.08
2022-11-24T20:18:09.881Z,14.06
2022-11-24T20:23:22.386Z,14.04
2022-11-24T20:25:53.843Z,14.04
2022-11-24T20:28:41.138Z,14.05
2022-11-24T20:31:11.175Z,14.11
2022-11-24T20:33:39.598Z,14.16
2022-11-24T20:36:10.776Z,14.20
2022-11-24T20:38:41.326Z,14.18
2022-11-24T20:41:13.311Z,14.26
2022-11-24T20:43:46.829Z,14.29
2022-11-24T20:46:17.318Z,14.33
2022-11-24T20:48:46.575Z,14.34
2022-11-24T20:51:17.125Z,14.38
2022-11-24T20:53:48.807Z,14.36
2022-11-24T20:56:21.859Z,14.35
2022-11-24T20:58:54.523Z,14.37
2022-11-24T21:01:27.514Z,14.35
2022-11-24T21:03:59.372Z,14.30
2022-11-24T21:06:34.043Z,14.28
2022-11-24T21:09:13.336Z,14.25
2022-11-24T21:12:01.847Z,14.24
2022-11-24T21:18:52.820Z,14.18
2022-11-24T21:21:38.140Z,14.24
2022-11-24T21:24:40.822Z,14.22
2022-11-24T21:27:23.934Z,14.11
2022-11-24T21:29:52.182Z,14.04
2022-11-24T21:32:20.256Z,13.96
2022-11-24T21:34:49.176Z,13.91
2022-11-24T21:37:34.965Z,13.93
2022-11-24T21:43:05.508Z,13.78
2022-11-24T21:45:50.957Z,13.67
2022-11-24T21:51:48.122Z,13.33
2022-11-24T21:54:24.443Z,13.37
2022-11-24T21:57:01.185Z,13.41
2022-11-24T21:59:35.275Z,13.35
2022-11-24T22:02:06.693Z,13.31
2022-11-24T22:04:40.787Z,13.26
2022-11-24T22:07:16.104Z,13.19
2022-11-24T22:09:50.880Z,13.29
2022-11-24T22:25:44.046Z,14.04
2022-11-24T22:28:24.052Z,14.12
2022-11-24T22:31:09.181Z,14.15
2022-11-24T22:33:37.771Z,14.27
2022-11-24T22:36:13.315Z,14.29
2022-11-24T22:38:49.631Z,14.42
2022-11-24T22:45:00.879Z,14.60
2022-11-24T22:47:47.764Z,14.75
2022-11-24T22:51:00.219Z,14.79
2022-11-24T22:54:05.056Z,14.90
2022-11-24T22:57:01.763Z,14.93
2022-11-24T22:59:37.812Z,14.90
2022-11-24T23:02:11.013Z,14.92
2022-11-24T23:08:01.618Z,15.12
2022-11-24T23:16:31.319Z,15.39
2022-11-24T23:22:57.355Z,15.66
2022-11-24T23:34:41.269Z,15.97
2022-11-24T23:37:16.852Z,15.99
2022-11-24T23:40:03.938Z,16.02
2022-11-24T23:43:20.887Z,15.98
2022-11-24T23:49:56.006Z,15.96
2022-11-24T23:52:38.823Z,15.99
